sensor_id;sensor_type;location;lat;lon;timestamp;pressure;altitude;pressure_sealevel;temperature;humidity
7052;BME280;3567;52.444;13.556;2024-03-23T00:52:43;100405.31;;;7.43;100.00
7052;BME280;3567;52.444;13.556;2024-03-23T00:55:08;100398.38;;;7.42;100.00
7052;BME280;3567;52.444;13.556;2024-03-23T00:57:33;100401.03;;;7.42;100.00
7052;BME280;3567;52.444;13.556;2024-03-23T00:59:58;100390.56;;;7.40;100.00
7052;BME280;3567;52.444;13.556;2024-03-23T01:02:24;100385.25;;;7.40;100.00
7052;BME280;3567;52.444;13.556;2024-03-23T01:04:49;100376.44;;;7.40;100.00
7052;BME280;3567;52.444;13.556;2024-03-23T01:07:14;100390.38;;;7.42;100.00
7052;BME280;3567;52.444;13.556;2024-03-23T01:09:39;100381.56;;;7.41;100.00
7052;BME280;3567;52.444;13.556;2024-03-23T01:12:05;100382.38;;;7.42;100.00
7052;BME280;3567;52.444;13.556;2024-03-23T01:14:30;100376.00;;;7.43;100.00
7052;BME280;3567;52.444;13.556;2024-03-23T01:16:56;100370.69;;;7.43;100.00
7052;BME280;3567;52.444;13.556;2024-03-23T01:19:21;100377.06;;;7.42;100.00
7052;BME280;3567;52.444;13.556;2024-03-23T01:21:46;100382.56;;;7.40;100.00
7052;BME280;3567;52.444;13.556;2024-03-23T01:24:12;100378.28;;;7.39;100.00
7052;BME280;3567;52.444;13.556;2024-03-23T01:26:37;100373.78;;;7.40;100.00
7052;BME280;3567;52.444;13.556;2024-03-23T01:29:03;100366.59;;;7.40;100.00
7052;BME280;3567;52.444;13.556;2024-03-23T01:31:29;100374.81;;;7.39;100.00
7052;BME280;3567;52.444;13.556;2024-03-23T01:33:54;100364.16;;;7.39;100.00
7052;BME280;3567;52.444;13.556;2024-03-23T01:36:19;100354.53;;;7.38;100.00
7052;BME280;3567;52.444;13.556;2024-03-23T01:38:45;100347.56;;;7.37;100.00
7052;BME280;3567;52.444;13.556;2024-03-23T01:41:10;100336.91;;;7.37;100.00
7052;BME280;3567;52.444;13.556;2024-03-23T01:43:35;100323.81;;;7.35;100.00
7052;BME280;3567;52.444;13.556;2024-03-23T01:46:01;100323.44;;;7.31;100.00
7052;BME280;3567;52.444;13.556;2024-03-23T01:48:26;100317.28;;;7.31;100.00
7052;BME280;3567;52.444;13.556;2024-03-23T01:50:51;100307.44;;;7.31;100.00
7052;BME280;3567;52.444;13.556;2024-03-23T01:53:17;100289.84;;;7.30;100.00
7052;BME280;3567;52.444;13.556;2024-03-23T01:55:44;100300.03;;;7.33;100.00
7052;BME280;3567;52.444;13.556;2024-03-23T01:58:09;100307.59;;;7.37;100.00
7052;BME280;3567;52.444;13.556;2024-03-23T02:00:35;100305.75;;;7.37;100.00
7052;BME280;3567;52.444;13.556;2024-03-23T02:03:00;100301.25;;;7.38;100.00
7052;BME280;3567;52.444;13.556;2024-03-23T02:05:26;100302.88;;;7.39;100.00
7052;BME280;3567;52.444;13.556;2024-03-23T02:07:51;100303.69;;;7.39;100.00
7052;BME280;3567;52.444;13.556;2024-03-23T02:10:16;100304.50;;;7.40;100.00
7052;BME280;3567;52.444;13.556;2024-03-23T02:12:41;100295.50;;;7.41;100.00
7052;BME280;3567;52.444;13.556;2024-03-23T02:15:07;100309.63;;;7.41;100.00
7052;BME280;3567;52.444;13.556;2024-03-23T02:17:34;100312.47;;;7.40;100.00
7052;BME280;3567;52.444;13.556;2024-03-23T02:20:00;100309.81;;;7.40;100.00
7052;BME280;3567;52.444;13.556;2024-03-23T02:22:35;100305.91;;;7.42;100.00
7052;BME280;3567;52.444;13.556;2024-03-23T02:25:01;100295.03;;;7.44;100.00
7052;BME280;3567;52.444;13.556;2024-03-23T02:27:27;100293.63;;;7.41;100.00
7052;BME280;3567;52.444;13.556;2024-03-23T02:29:53;100299.16;;;7.40;100.00
7052;BME280;3567;52.444;13.556;2024-03-23T02:32:18;100295.91;;;7.38;100.00
7052;BME280;3567;52.444;13.556;2024-03-23T02:34:43;100295.91;;;7.38;100.00
7052;BME280;3567;52.444;13.556;2024-03-23T02:37:12;100288.50;;;7.40;100.00
7052;BME280;3567;52.444;13.556;2024-03-23T02:39:37;100272.97;;;7.37;100.00
7052;BME280;3567;52.444;13.556;2024-03-23T02:42:03;100266.44;;;7.32;100.00
7052;BME280;3567;52.444;13.556;2024-03-23T02:44:28;100259.88;;;7.35;100.00
7052;BME280;3567;52.444;13.556;2024-03-23T02:46:53;100262.31;;;7.37;100.00
7052;BME280;3567;52.444;13.556;2024-03-23T02:49:18;100255.94;;;7.38;100.00
7052;BME280;3567;52.444;13.556;2024-03-23T02:51:44;100260.47;;;7.37;100.00
7052;BME280;3567;52.444;13.556;2024-03-23T02:54:10;100249.56;;;7.39;100.00
7052;BME280;3567;52.444;13.556;2024-03-23T02:56:36;100241.00;;;7.37;100.00
7052;BME280;3567;52.444;13.556;2024-03-23T02:59:01;100242.03;;;7.35;100.00
7052;BME280;3567;52.444;13.556;2024-03-23T03:01:26;100233.44;;;7.33;100.00
7052;BME280;3567;52.444;13.556;2024-03-23T03:03:51;100234.47;;;7.32;100.00
7052;BME280;3567;52.444;13.556;2024-03-23T03:06:26;100229.13;;;7.32;100.00
7052;BME280;3567;52.444;13.556;2024-03-23T03:08:52;100234.03;;;7.35;100.00
7052;BME280;3567;52.444;13.556;2024-03-23T03:11:17;100237.72;;;7.34;100.00
7052;BME280;3567;52.444;13.556;2024-03-23T03:13:42;100234.03;;;7.35;100.00
7052;BME280;3567;52.444;13.556;2024-03-23T03:16:11;100227.06;;;7.34;100.00
7052;BME280;3567;52.444;13.556;2024-03-23T03:18:37;100224.41;;;7.34;100.00
7052;BME280;3567;52.444;13.556;2024-03-23T03:21:03;100226.25;;;7.34;100.00
7052;BME280;3567;52.444;13.556;2024-03-23T03:23:30;100234.25;;;7.34;100.00
7052;BME280;3567;52.444;13.556;2024-03-23T03:25:55;100224.41;;;7.34;100.00
7052;BME280;3567;52.444;13.556;2024-03-23T03:28:20;100211.06;;;7.34;100.00
7052;BME280;3567;52.444;13.556;2024-03-23T03:30:46;100202.06;;;7.35;100.00
7052;BME280;3567;52.444;13.556;2024-03-23T03:33:11;100203.91;;;7.35;100.00
7052;BME280;3567;52.444;13.556;2024-03-23T03:35:36;100191.41;;;7.35;100.00
7052;BME280;3567;52.444;13.556;2024-03-23T03:38:02;100196.50;;;7.37;100.00
7052;BME280;3567;52.444;13.556;2024-03-23T03:40:28;100195.69;;;7.37;100.00
7052;BME280;3567;52.444;13.556;2024-03-23T03:42:53;100192.00;;;7.38;100.00
7052;BME280;3567;52.444;13.556;2024-03-23T03:45:18;100200.56;;;7.40;100.00
7052;BME280;3567;52.444;13.556;2024-03-23T03:47:44;100197.91;;;7.40;100.00
7052;BME280;3567;52.444;13.556;2024-03-23T03:50:09;100188.53;;;7.37;100.00
7052;BME280;3567;52.444;13.556;2024-03-23T03:52:34;100184.44;;;7.34;100.00
7052;BME280;3567;52.444;13.556;2024-03-23T03:55:03;100187.09;;;7.34;100.00
7052;BME280;3567;52.444;13.556;2024-03-23T03:57:28;100197.97;;;7.33;100.00
7052;BME280;3567;52.444;13.556;2024-03-23T03:59:54;100194.28;;;7.34;100.00
7052;BME280;3567;52.444;13.556;2024-03-23T04:02:19;100192.88;;;7.31;100.00
7052;BME280;3567;52.444;13.556;2024-03-23T04:04:44;100183.25;;;7.30;100.00
7052;BME280;3567;52.444;13.556;2024-03-23T04:07:10;100177.31;;;7.28;100.00
7052;BME280;3567;52.444;13.556;2024-03-23T04:09:35;100175.69;;;7.27;100.00
7052;BME280;3567;52.444;13.556;2024-03-23T04:12:00;100178.59;;;7.26;100.00
7052;BME280;3567;52.444;13.556;2024-03-23T04:14:26;100170.59;;;7.26;100.00
7052;BME280;3567;52.444;13.556;2024-03-23T04:16:51;100164.47;;;7.25;100.00
7052;BME280;3567;52.444;13.556;2024-03-23T04:19:16;100166.50;;;7.23;100.00
7052;BME280;3567;52.444;13.556;2024-03-23T04:21:42;100158.38;;;7.18;100.00
7052;BME280;3567;52.444;13.556;2024-03-23T04:24:07;100161.91;;;7.12;100.00
7052;BME280;3567;52.444;13.556;2024-03-23T04:26:42;100164.22;;;7.08;100.00
7052;BME280;3567;52.444;13.556;2024-03-23T04:29:08;100171.22;;;7.03;100.00
7052;BME280;3567;52.444;13.556;2024-03-23T04:31:33;100167.97;;;7.01;100.00
7052;BME280;3567;52.444;13.556;2024-03-23T04:34:00;100167.56;;;6.97;100.00
7052;BME280;3567;52.444;13.556;2024-03-23T04:36:26;100161.44;;;6.97;100.00
7052;BME280;3567;52.444;13.556;2024-03-23T04:38:51;100166.19;;;6.95;100.00
7052;BME280;3567;52.444;13.556;2024-03-23T04:41:17;100169.06;;;6.93;100.00
7052;BME280;3567;52.444;13.556;2024-03-23T04:43:43;100170.91;;;6.93;100.00
7052;BME280;3567;52.444;13.556;2024-03-23T04:46:08;100166.66;;;6.85;100.00
7052;BME280;3567;52.444;13.556;2024-03-23T04:48:33;100157.94;;;6.78;100.00
7052;BME280;3567;52.444;13.556;2024-03-23T04:50:59;100159.16;;;6.75;100.00
7052;BME280;3567;52.444;13.556;2024-03-23T04:53:24;100150.59;;;6.73;100.00
7052;BME280;3567;52.444;13.556;2024-03-23T04:55:56;100144.53;;;6.66;100.00
7052;BME280;3567;52.444;13.556;2024-03-23T04:58:22;100139.44;;;6.58;100.00
7052;BME280;3567;52.444;13.556;2024-03-23T05:00:48;100127.44;;;6.49;100.00
7052;BME280;3567;52.444;13.556;2024-03-23T05:03:17;100124.44;;;6.39;100.00
7052;BME280;3567;52.444;13.556;2024-03-23T05:05:44;100120.59;;;6.35;100.00
7052;BME280;3567;52.444;13.556;2024-03-23T05:08:09;100119.41;;;6.30;100.00
7052;BME280;3567;52.444;13.556;2024-03-23T05:10:35;100128.41;;;6.29;100.00
7052;BME280;3567;52.444;13.556;2024-03-23T05:13:00;100120.44;;;6.29;100.00
7052;BME280;3567;52.444;13.556;2024-03-23T05:15:26;100124.94;;;6.29;100.00
7052;BME280;3567;52.444;13.556;2024-03-23T05:17:52;100128.03;;;6.26;100.00
7052;BME280;3567;52.444;13.556;2024-03-23T05:20:18;100130.28;;;6.22;100.00
7052;BME280;3567;52.444;13.556;2024-03-23T05:22:44;100130.28;;;6.22;100.00
7052;BME280;3567;52.444;13.556;2024-03-23T05:25:09;100124.38;;;6.20;100.00
7052;BME280;3567;52.444;13.556;2024-03-23T05:27:35;100116.63;;;6.19;100.00
7052;BME280;3567;52.444;13.556;2024-03-23T05:30:00;100118.66;;;6.17;100.00
7052;BME280;3567;52.444;13.556;2024-03-23T05:32:25;100114.38;;;6.16;100.00
7052;BME280;3567;52.444;13.556;2024-03-23T05:34:51;100125.81;;;6.16;100.00
7052;BME280;3567;52.444;13.556;2024-03-23T05:37:21;100109.50;;;6.13;100.00
7052;BME280;3567;52.444;13.556;2024-03-23T05:39:47;100113.81;;;6.07;100.00
7052;BME280;3567;52.444;13.556;2024-03-23T05:42:14;100098.31;;;6.04;100.00
7052;BME280;3567;52.444;13.556;2024-03-23T05:44:40;100095.06;;;6.02;100.00
7052;BME280;3567;52.444;13.556;2024-03-23T05:47:05;100099.75;;;6.00;100.00
7052;BME280;3567;52.444;13.556;2024-03-23T05:49:31;100097.09;;;6.00;100.00
7052;BME280;3567;52.444;13.556;2024-03-23T05:51:56;100095.47;;;5.99;100.00
7052;BME280;3567;52.444;13.556;2024-03-23T05:54:21;100090.16;;;5.99;100.00
7052;BME280;3567;52.444;13.556;2024-03-23T05:56:46;100090.16;;;5.99;100.00
7052;BME280;3567;52.444;13.556;2024-03-23T05:59:12;100081.59;;;5.97;100.00
7052;BME280;3567;52.444;13.556;2024-03-23T06:01:37;100078.31;;;5.95;100.00
7052;BME280;3567;52.444;13.556;2024-03-23T06:04:04;100073.44;;;5.92;100.00
7052;BME280;3567;52.444;13.556;2024-03-23T06:06:29;100071.38;;;5.94;100.00
7052;BME280;3567;52.444;13.556;2024-03-23T06:08:57;100071.78;;;5.97;100.00
7052;BME280;3567;52.444;13.556;2024-03-23T06:11:22;100061.13;;;5.97;100.00
7052;BME280;3567;52.444;13.556;2024-03-23T06:13:47;100043.75;;;5.95;100.00
7052;BME280;3567;52.444;13.556;2024-03-23T06:16:13;100039.06;;;5.97;100.00
7052;BME280;3567;52.444;13.556;2024-03-23T06:18:39;100035.72;;;6.01;100.00
7052;BME280;3567;52.444;13.556;2024-03-23T06:21:04;100033.69;;;6.03;100.00
7052;BME280;3567;52.444;13.556;2024-03-23T06:23:29;100025.72;;;6.03;100.00
7052;BME280;3567;52.444;13.556;2024-03-23T06:25:55;100012.41;;;6.03;100.00
7052;BME280;3567;52.444;13.556;2024-03-23T06:28:20;100017.28;;;6.07;100.00
7052;BME280;3567;52.444;13.556;2024-03-23T06:30:46;100030.38;;;6.08;100.00
7052;BME280;3567;52.444;13.556;2024-03-23T06:33:11;100029.19;;;6.04;100.00
7052;BME280;3567;52.444;13.556;2024-03-23T06:35:37;100033.28;;;6.00;100.00
7052;BME280;3567;52.444;13.556;2024-03-23T06:38:02;100024.91;;;6.03;100.00
7052;BME280;3567;52.444;13.556;2024-03-23T06:40:27;100019.13;;;6.06;100.00
7052;BME280;3567;52.444;13.556;2024-03-23T06:42:53;100013.44;;;6.02;100.00
7052;BME280;3567;52.444;13.556;2024-03-23T06:45:18;99998.50;;;6.01;100.00
7052;BME280;3567;52.444;13.556;2024-03-23T06:47:48;100001.63;;;5.98;100.00
7052;BME280;3567;52.444;13.556;2024-03-23T06:50:13;100005.09;;;5.99;100.00
7052;BME280;3567;52.444;13.556;2024-03-23T06:52:39;100015.72;;;5.99;100.00
7052;BME280;3567;52.444;13.556;2024-03-23T06:55:04;100011.59;;;6.03;100.00
7052;BME280;3567;52.444;13.556;2024-03-23T06:57:30;100009.97;;;6.02;100.00
7052;BME280;3567;52.444;13.556;2024-03-23T06:59:56;100012.41;;;6.03;100.00
7052;BME280;3567;52.444;13.556;2024-03-23T07:02:21;99991.72;;;6.06;100.00
7052;BME280;3567;52.444;13.556;2024-03-23T07:04:46;99991.91;;;6.11;100.00
7052;BME280;3567;52.444;13.556;2024-03-23T07:07:12;99982.69;;;6.13;100.00
7052;BME280;3567;52.444;13.556;2024-03-23T07:09:37;99985.75;;;6.10;100.00
7052;BME280;3567;52.444;13.556;2024-03-23T07:12:03;99984.16;;;6.09;100.00
7052;BME280;3567;52.444;13.556;2024-03-23T07:14:28;99979.88;;;6.08;100.00
7052;BME280;3567;52.444;13.556;2024-03-23T07:16:53;99986.81;;;6.09;100.00
7052;BME280;3567;52.444;13.556;2024-03-23T07:19:19;99980.44;;;6.10;100.00
7052;BME280;3567;52.444;13.556;2024-03-23T07:21:44;99984.53;;;6.13;100.00
7052;BME280;3567;52.444;13.556;2024-03-23T07:24:10;99980.84;;;6.14;100.00
7052;BME280;3567;52.444;13.556;2024-03-23T07:26:35;99981.19;;;6.17;100.00
7052;BME280;3567;52.444;13.556;2024-03-23T07:29:01;99978.69;;;6.22;100.00
7052;BME280;3567;52.444;13.556;2024-03-23T07:31:27;99970.53;;;6.24;100.00
7052;BME280;3567;52.444;13.556;2024-03-23T07:33:52;99986.69;;;6.22;100.00
7052;BME280;3567;52.444;13.556;2024-03-23T07:36:17;99978.13;;;6.20;100.00
7052;BME280;3567;52.444;13.556;2024-03-23T07:38:43;99979.31;;;6.24;100.00
7052;BME280;3567;52.444;13.556;2024-03-23T07:41:16;99976.25;;;6.21;100.00
7052;BME280;3567;52.444;13.556;2024-03-23T07:43:44;99983.19;;;6.22;100.00
7052;BME280;3567;52.444;13.556;2024-03-23T07:46:10;99979.50;;;6.23;100.00
7052;BME280;3567;52.444;13.556;2024-03-23T07:48:35;99976.41;;;6.26;100.00
7052;BME280;3567;52.444;13.556;2024-03-23T07:53:27;99966.75;;;6.32;100.00
7052;BME280;3567;52.444;13.556;2024-03-23T07:55:57;99971.41;;;6.36;100.00
7052;BME280;3567;52.444;13.556;2024-03-23T07:58:23;99968.19;;;6.34;100.00
7052;BME280;3567;52.444;13.556;2024-03-23T08:00:49;99959.00;;;6.30;100.00
7052;BME280;3567;52.444;13.556;2024-03-23T08:03:14;99959.66;;;6.25;100.00
7052;BME280;3567;52.444;13.556;2024-03-23T08:05:40;99956.69;;;6.15;100.00
7052;BME280;3567;52.444;13.556;2024-03-23T08:08:05;99958.53;;;6.15;100.00
7052;BME280;3567;52.444;13.556;2024-03-23T08:10:30;99951.94;;;6.17;100.00
7052;BME280;3567;52.444;13.556;2024-03-23T08:12:56;99952.63;;;6.13;100.00
7052;BME280;3567;52.444;13.556;2024-03-23T08:15:21;99949.34;;;6.11;100.00
7052;BME280;3567;52.444;13.556;2024-03-23T08:17:46;99938.50;;;6.12;100.00
7052;BME280;3567;52.444;13.556;2024-03-23T08:20:12;99933.84;;;6.08;100.00
7052;BME280;3567;52.444;13.556;2024-03-23T08:22:37;99926.72;;;6.01;100.00
7052;BME280;3567;52.444;13.556;2024-03-23T08:25:02;99932.09;;;5.95;100.00
7052;BME280;3567;52.444;13.556;2024-03-23T08:27:28;99933.16;;;5.94;100.00
7052;BME280;3567;52.444;13.556;2024-03-23T08:29:53;99927.81;;;5.94;100.00
7052;BME280;3567;52.444;13.556;2024-03-23T08:32:18;99926.78;;;5.95;100.00
7052;BME280;3567;52.444;13.556;2024-03-23T08:34:44;99931.53;;;5.93;100.00
7052;BME280;3567;52.444;13.556;2024-03-23T08:37:10;99932.34;;;5.93;100.00
7052;BME280;3567;52.444;13.556;2024-03-23T08:39:35;99933.19;;;5.87;100.00
7052;BME280;3567;52.444;13.556;2024-03-23T08:42:01;99927.47;;;5.84;100.00
7052;BME280;3567;52.444;13.556;2024-03-23T08:44:26;99927.13;;;5.73;100.00
7052;BME280;3567;52.444;13.556;2024-03-23T08:46:51;99924.31;;;5.68;100.00
7052;BME280;3567;52.444;13.556;2024-03-23T08:49:16;99920.25;;;5.66;100.00
7052;BME280;3567;52.444;13.556;2024-03-23T08:51:42;99925.78;;;5.64;100.00
7052;BME280;3567;52.444;13.556;2024-03-23T08:54:08;99928.88;;;5.61;100.00
7052;BME280;3567;52.444;13.556;2024-03-23T08:56:34;99926.88;;;5.57;100.00
7052;BME280;3567;52.444;13.556;2024-03-23T08:58:59;99934.66;;;5.51;100.00
7052;BME280;3567;52.444;13.556;2024-03-23T09:01:24;99929.13;;;5.53;100.00
7052;BME280;3567;52.444;13.556;2024-03-23T09:03:49;99916.22;;;5.57;100.00
7052;BME280;3567;52.444;13.556;2024-03-23T09:06:15;99925.59;;;5.59;100.00
7052;BME280;3567;52.444;13.556;2024-03-23T09:08:40;99928.88;;;5.61;100.00
7052;BME280;3567;52.444;13.556;2024-03-23T09:11:07;99929.28;;;5.58;100.00
7052;BME280;3567;52.444;13.556;2024-03-23T09:13:36;99921.78;;;5.48;100.00
7052;BME280;3567;52.444;13.556;2024-03-23T09:16:02;99936.75;;;5.43;100.00
7052;BME280;3567;52.444;13.556;2024-03-23T09:18:32;99938.59;;;5.42;100.00
7052;BME280;3567;52.444;13.556;2024-03-23T09:20:57;99936.44;;;5.33;100.00
7052;BME280;3567;52.444;13.556;2024-03-23T09:23:22;99940.59;;;5.22;100.00
7052;BME280;3567;52.444;13.556;2024-03-23T09:25:48;99947.97;;;5.13;100.00
7052;BME280;3567;52.444;13.556;2024-03-23T09:28:13;99943.09;;;5.04;100.00
7052;BME280;3567;52.444;13.556;2024-03-23T09:30:38;99952.09;;;5.03;100.00
7052;BME280;3567;52.444;13.556;2024-03-23T09:33:10;99937.00;;;5.03;100.00
7052;BME280;3567;52.444;13.556;2024-03-23T09:35:43;99946.84;;;4.96;100.00
7052;BME280;3567;52.444;13.556;2024-03-23T09:38:09;99944.84;;;4.85;100.00
7052;BME280;3567;52.444;13.556;2024-03-23T09:40:40;99956.91;;;4.81;100.00
7052;BME280;3567;52.444;13.556;2024-03-23T09:43:06;99962.81;;;4.76;100.00
7052;BME280;3567;52.444;13.556;2024-03-23T09:45:34;99961.38;;;4.73;100.00
7052;BME280;3567;52.444;13.556;2024-03-23T09:48:02;99959.97;;;4.71;100.00
7052;BME280;3567;52.444;13.556;2024-03-23T09:50:27;99975.72;;;4.66;100.00
7052;BME280;3567;52.444;13.556;2024-03-23T09:52:52;99986.75;;;4.56;100.00
7052;BME280;3567;52.444;13.556;2024-03-23T09:55:18;99992.28;;;4.48;100.00
7052;BME280;3567;52.444;13.556;2024-03-23T09:57:43;99995.56;;;4.43;100.00
7052;BME280;3567;52.444;13.556;2024-03-23T10:00:09;100001.66;;;4.31;100.00
7052;BME280;3567;52.444;13.556;2024-03-23T10:02:35;100007.78;;;4.25;100.00
7052;BME280;3567;52.444;13.556;2024-03-23T10:05:01;100027.16;;;4.25;100.00
7052;BME280;3567;52.444;13.556;2024-03-23T10:07:26;100023.72;;;4.18;100.00
7052;BME280;3567;52.444;13.556;2024-03-23T10:09:54;100045.50;;;4.20;100.00
7052;BME280;3567;52.444;13.556;2024-03-23T10:12:20;100042.88;;;4.20;100.00
7052;BME280;3567;52.444;13.556;2024-03-23T10:14:46;100047.34;;;4.19;100.00
7052;BME280;3567;52.444;13.556;2024-03-23T10:17:21;100046.97;;;4.23;100.00
7052;BME280;3567;52.444;13.556;2024-03-23T10:19:52;100044.09;;;4.17;100.00
7052;BME280;3567;52.444;13.556;2024-03-23T10:22:22;100051.84;;;4.12;100.00
7052;BME280;3567;52.444;13.556;2024-03-23T10:24:48;100043.69;;;4.07;100.00
7052;BME280;3567;52.444;13.556;2024-03-23T10:27:18;100040.81;;;4.02;100.00
7052;BME280;3567;52.444;13.556;2024-03-23T10:29:45;100050.19;;;3.98;100.00
7052;BME280;3567;52.444;13.556;2024-03-23T10:32:11;100051.22;;;3.97;100.00
7052;BME280;3567;52.444;13.556;2024-03-23T10:34:37;100059.16;;;3.97;100.00
7052;BME280;3567;52.444;13.556;2024-03-23T10:37:03;100059.75;;;3.92;100.00
7052;BME280;3567;52.444;13.556;2024-03-23T10:39:33;100074.25;;;3.90;100.00
7052;BME280;3567;52.444;13.556;2024-03-23T10:42:01;100074.25;;;3.90;100.00
7052;BME280;3567;52.444;13.556;2024-03-23T10:44:28;100076.69;;;3.85;100.00
7052;BME280;3567;52.444;13.556;2024-03-23T10:46:55;100075.44;;;3.74;100.00
7052;BME280;3567;52.444;13.556;2024-03-23T10:49:26;100081.31;;;3.63;100.00
7052;BME280;3567;52.444;13.556;2024-03-23T10:51:52;100080.06;;;3.59;100.00
7052;BME280;3567;52.444;13.556;2024-03-23T10:54:18;100080.28;;;3.57;100.00
7052;BME280;3567;52.444;13.556;2024-03-23T10:56:44;100078.47;;;3.64;100.00
7052;BME280;3567;52.444;13.556;2024-03-23T10:59:12;100094.16;;;3.73;100.00
7052;BME280;3567;52.444;13.556;2024-03-23T11:01:57;100096.63;;;3.81;100.00
7052;BME280;3567;52.444;13.556;2024-03-23T11:04:30;100104.81;;;3.86;100.00
7052;BME280;3567;52.444;13.556;2024-03-23T11:06:57;100096.03;;;3.92;100.00
7052;BME280;3567;52.444;13.556;2024-03-23T11:12:17;100095.44;;;3.97;100.00
7052;BME280;3567;52.444;13.556;2024-03-23T11:15:00;100097.91;;;4.05;100.00
7052;BME280;3567;52.444;13.556;2024-03-23T11:17:27;100096.91;;;4.12;100.00
7052;BME280;3567;52.444;13.556;2024-03-23T11:19:53;100098.09;;;4.10;100.00
7052;BME280;3567;52.444;13.556;2024-03-23T11:25:02;100108.09;;;4.14;100.00
7052;BME280;3567;52.444;13.556;2024-03-23T11:27:28;100093.66;;;4.24;100.00
7052;BME280;3567;52.444;13.556;2024-03-23T11:29:53;100088.75;;;4.34;100.00
7052;BME280;3567;52.444;13.556;2024-03-23T11:32:18;100100.00;;;4.42;100.00
7052;BME280;3567;52.444;13.556;2024-03-23T11:34:43;100084.88;;;4.50;100.00
7052;BME280;3567;52.444;13.556;2024-03-23T11:37:09;100090.81;;;4.58;100.00
7052;BME280;3567;52.444;13.556;2024-03-23T11:39:34;100092.66;;;4.64;100.00
7052;BME280;3567;52.444;13.556;2024-03-23T11:41:59;100089.38;;;4.69;100.00
7052;BME280;3567;52.444;13.556;2024-03-23T11:44:25;100106.09;;;4.69;100.00
7052;BME280;3567;52.444;13.556;2024-03-23T11:46:52;100106.50;;;4.73;100.00
7052;BME280;3567;52.444;13.556;2024-03-23T11:49:28;100107.72;;;4.77;100.00
7052;BME280;3567;52.444;13.556;2024-03-23T11:51:55;100112.41;;;4.82;100.00
7052;BME280;3567;52.444;13.556;2024-03-23T11:54:22;100120.16;;;4.83;100.00
7052;BME280;3567;52.444;13.556;2024-03-23T11:57:04;100123.63;;;4.84;100.00
7052;BME280;3567;52.444;13.556;2024-03-23T11:59:37;100112.63;;;4.87;100.00
7052;BME280;3567;52.444;13.556;2024-03-23T12:02:07;100109.13;;;4.93;100.00
7052;BME280;3567;52.444;13.556;2024-03-23T12:04:33;100085.63;;;5.03;100.00
7052;BME280;3567;52.444;13.556;2024-03-23T12:07:17;100082.34;;;5.14;100.00
7052;BME280;3567;52.444;13.556;2024-03-23T12:09:48;100088.44;;;5.21;100.00
7052;BME280;3567;52.444;13.556;2024-03-23T12:12:27;100091.28;;;5.26;100.00
7052;BME280;3567;52.444;13.556;2024-03-23T12:15:07;100101.31;;;5.24;100.00
7052;BME280;3567;52.444;13.556;2024-03-23T12:17:34;100105.78;;;5.31;100.00
7052;BME280;3567;52.444;13.556;2024-03-23T12:20:00;100110.25;;;5.30;100.00
7052;BME280;3567;52.444;13.556;2024-03-23T12:22:26;100104.34;;;5.35;100.00
7052;BME280;3567;52.444;13.556;2024-03-23T12:24:52;100093.28;;;5.38;100.00
7052;BME280;3567;52.444;13.556;2024-03-23T12:27:17;100099.34;;;5.51;100.00
7052;BME280;3567;52.444;13.556;2024-03-23T12:29:42;100095.72;;;5.46;100.00
7052;BME280;3567;52.444;13.556;2024-03-23T12:32:12;100095.72;;;5.46;100.00
7052;BME280;3567;52.444;13.556;2024-03-23T12:34:38;100102.03;;;5.51;100.00
7052;BME280;3567;52.444;13.556;2024-03-23T12:37:03;100101.56;;;5.61;100.00
7052;BME280;3567;52.444;13.556;2024-03-23T12:39:29;100107.44;;;5.70;100.00
7052;BME280;3567;52.444;13.556;2024-03-23T12:41:54;100105.81;;;5.69;100.00
7052;BME280;3567;52.444;13.556;2024-03-23T12:44:20;100108.31;;;5.57;100.00
7052;BME280;3567;52.444;13.556;2024-03-23T12:46:46;100106.66;;;5.63;100.00
7052;BME280;3567;52.444;13.556;2024-03-23T12:49:11;100105.81;;;5.69;100.00
7052;BME280;3567;52.444;13.556;2024-03-23T12:51:36;100102.97;;;5.70;100.00
7052;BME280;3567;52.444;13.556;2024-03-23T12:54:02;100101.66;;;5.79;100.00
7052;BME280;3567;52.444;13.556;2024-03-23T12:56:28;100104.91;;;5.88;100.00
7052;BME280;3567;52.444;13.556;2024-03-23T12:58:54;100100.41;;;5.89;100.00
7052;BME280;3567;52.444;13.556;2024-03-23T13:01:20;100097.53;;;5.97;100.00
7052;BME280;3567;52.444;13.556;2024-03-23T13:03:47;100094.44;;;6.00;100.00
7052;BME280;3567;52.444;13.556;2024-03-23T13:06:12;100095.38;;;6.12;100.00
7052;BME280;3567;52.444;13.556;2024-03-23T13:08:38;100091.72;;;6.13;100.00
7052;BME280;3567;52.444;13.556;2024-03-23T13:11:03;100097.84;;;6.14;100.00
7052;BME280;3567;52.444;13.556;2024-03-23T13:13:29;100091.31;;;6.10;100.00
7052;BME280;3567;52.444;13.556;2024-03-23T13:15:56;100091.72;;;6.13;100.00
7052;BME280;3567;52.444;13.556;2024-03-23T13:18:21;100087.97;;;6.21;100.00
7052;BME280;3567;52.444;13.556;2024-03-23T13:20:46;100087.91;;;6.27;100.00
7052;BME280;3567;52.444;13.556;2024-03-23T13:23:12;100091.44;;;6.46;100.00
7052;BME280;3567;52.444;13.556;2024-03-23T13:25:38;100097.75;;;6.52;100.00
7052;BME280;3567;52.444;13.556;2024-03-23T13:28:03;100094.38;;;6.63;100.00
7052;BME280;3567;52.444;13.556;2024-03-23T13:30:29;100090.16;;;6.99;100.00
7052;BME280;3567;52.444;13.556;2024-03-23T13:32:54;100095.84;;;7.39;100.00
7052;BME280;3567;52.444;13.556;2024-03-23T13:35:19;100102.88;;;7.82;100.00
7052;BME280;3567;52.444;13.556;2024-03-23T13:37:44;100096.34;;;7.96;100.00
7052;BME280;3567;52.444;13.556;2024-03-23T13:40:10;100105.59;;;8.35;100.00
7052;BME280;3567;52.444;13.556;2024-03-23T13:42:36;100097.78;;;8.87;100.00
7052;BME280;3567;52.444;13.556;2024-03-23T13:45:02;100089.63;;;9.29;100.00
7052;BME280;3567;52.444;13.556;2024-03-23T13:47:27;100107.94;;;9.49;100.00
7052;BME280;3567;52.444;13.556;2024-03-23T13:49:53;100097.34;;;9.54;100.00
7052;BME280;3567;52.444;13.556;2024-03-23T13:52:18;100093.78;;;9.25;100.00
7052;BME280;3567;52.444;13.556;2024-03-23T13:54:47;100096.03;;;9.16;100.00
7052;BME280;3567;52.444;13.556;2024-03-23T13:57:13;100092.53;;;9.16;100.00